sensor_id;sensor_type;location;lat;lon;timestamp;P1;durP1;ratioP1;P2;durP2;ratioP2
6438;SDS011;3252;52.540;13.290;2023-01-06T00:00:15;8.73;;;3.30;;
6438;SDS011;3252;52.540;13.290;2023-01-06T00:02:31;12.90;;;3.60;;
6438;SDS011;3252;52.540;13.290;2023-01-06T00:22:28;9.47;;;3.47;;
6438;SDS011;3252;52.540;13.290;2023-01-06T00:24:38;10.63;;;3.80;;
6438;SDS011;3252;52.540;13.290;2023-01-06T00:27:23;12.47;;;3.53;;
6438;SDS011;3252;52.540;13.290;2023-01-06T00:29:57;10.90;;;3.17;;
6438;SDS011;3252;52.540;13.290;2023-01-06T00:34:55;9.90;;;3.10;;
6438;SDS011;3252;52.540;13.290;2023-01-06T00:37:56;9.83;;;2.90;;
6438;SDS011;3252;52.540;13.290;2023-01-06T00:41:06;11.87;;;3.77;;
6438;SDS011;3252;52.540;13.290;2023-01-06T00:46:35;14.93;;;3.20;;
6438;SDS011;3252;52.540;13.290;2023-01-06T00:49:07;6.80;;;2.77;;
6438;SDS011;3252;52.540;13.290;2023-01-06T00:51:18;9.43;;;3.50;;
6438;SDS011;3252;52.540;13.290;2023-01-06T00:53:28;8.17;;;4.00;;
6438;SDS011;3252;52.540;13.290;2023-01-06T00:55:36;11.63;;;3.50;;
6438;SDS011;3252;52.540;13.290;2023-01-06T00:57:46;12.43;;;3.90;;
6438;SDS011;3252;52.540;13.290;2023-01-06T00:59:57;7.87;;;3.77;;
6438;SDS011;3252;52.540;13.290;2023-01-06T01:02:33;11.73;;;3.90;;
6438;SDS011;3252;52.540;13.290;2023-01-06T01:04:50;11.40;;;4.07;;
6438;SDS011;3252;52.540;13.290;2023-01-06T01:06:59;10.53;;;4.00;;
6438;SDS011;3252;52.540;13.290;2023-01-06T01:09:11;14.80;;;3.93;;
6438;SDS011;3252;52.540;13.290;2023-01-06T01:11:32;9.07;;;2.80;;
6438;SDS011;3252;52.540;13.290;2023-01-06T01:13:56;10.17;;;3.73;;
6438;SDS011;3252;52.540;13.290;2023-01-06T01:16:27;13.10;;;3.73;;
6438;SDS011;3252;52.540;13.290;2023-01-06T01:18:34;9.57;;;2.67;;
6438;SDS011;3252;52.540;13.290;2023-01-06T01:21:01;7.80;;;2.30;;
6438;SDS011;3252;52.540;13.290;2023-01-06T01:23:15;6.53;;;2.40;;
6438;SDS011;3252;52.540;13.290;2023-01-06T01:25:46;5.10;;;1.80;;
6438;SDS011;3252;52.540;13.290;2023-01-06T01:28:15;7.33;;;2.20;;
6438;SDS011;3252;52.540;13.290;2023-01-06T01:30:35;7.80;;;1.90;;
6438;SDS011;3252;52.540;13.290;2023-01-06T01:32:47;8.30;;;2.17;;
6438;SDS011;3252;52.540;13.290;2023-01-06T01:35:09;5.57;;;2.13;;
6438;SDS011;3252;52.540;13.290;2023-01-06T01:37:35;9.70;;;2.47;;
6438;SDS011;3252;52.540;13.290;2023-01-06T01:39:48;5.07;;;2.20;;
6438;SDS011;3252;52.540;13.290;2023-01-06T01:42:10;7.37;;;2.23;;
6438;SDS011;3252;52.540;13.290;2023-01-06T01:44:59;11.00;;;2.27;;
6438;SDS011;3252;52.540;13.290;2023-01-06T01:47:05;6.87;;;2.20;;
6438;SDS011;3252;52.540;13.290;2023-01-06T01:54:19;6.93;;;2.13;;
6438;SDS011;3252;52.540;13.290;2023-01-06T02:00:48;6.37;;;2.07;;
6438;SDS011;3252;52.540;13.290;2023-01-06T02:02:55;6.77;;;1.77;;
6438;SDS011;3252;52.540;13.290;2023-01-06T02:24:00;5.07;;;2.00;;
6438;SDS011;3252;52.540;13.290;2023-01-06T02:37:13;4.70;;;1.53;;
6438;SDS011;3252;52.540;13.290;2023-01-06T02:40:38;8.10;;;1.67;;
6438;SDS011;3252;52.540;13.290;2023-01-06T02:47:39;4.23;;;1.40;;
6438;SDS011;3252;52.540;13.290;2023-01-06T02:50:31;6.70;;;1.80;;
6438;SDS011;3252;52.540;13.290;2023-01-06T02:55:21;5.30;;;1.60;;
6438;SDS011;3252;52.540;13.290;2023-01-06T02:59:55;10.87;;;2.00;;
6438;SDS011;3252;52.540;13.290;2023-01-06T03:02:04;7.00;;;2.03;;
6438;SDS011;3252;52.540;13.290;2023-01-06T03:04:14;6.73;;;1.90;;
6438;SDS011;3252;52.540;13.290;2023-01-06T03:06:23;7.57;;;1.90;;
6438;SDS011;3252;52.540;13.290;2023-01-06T03:08:28;5.53;;;2.10;;
6438;SDS011;3252;52.540;13.290;2023-01-06T03:10:33;4.87;;;1.60;;
6438;SDS011;3252;52.540;13.290;2023-01-06T03:12:39;4.53;;;1.47;;
6438;SDS011;3252;52.540;13.290;2023-01-06T03:14:50;4.80;;;1.43;;
6438;SDS011;3252;52.540;13.290;2023-01-06T03:16:57;4.17;;;1.70;;
6438;SDS011;3252;52.540;13.290;2023-01-06T03:19:06;7.50;;;2.17;;
6438;SDS011;3252;52.540;13.290;2023-01-06T03:21:41;3.97;;;1.60;;
6438;SDS011;3252;52.540;13.290;2023-01-06T03:23:48;6.47;;;1.57;;
6438;SDS011;3252;52.540;13.290;2023-01-06T03:29:44;6.20;;;1.67;;
6438;SDS011;3252;52.540;13.290;2023-01-06T03:32:03;6.67;;;1.80;;
6438;SDS011;3252;52.540;13.290;2023-01-06T03:35:02;5.83;;;1.60;;
6438;SDS011;3252;52.540;13.290;2023-01-06T03:37:18;6.17;;;1.43;;
6438;SDS011;3252;52.540;13.290;2023-01-06T03:39:35;6.07;;;1.50;;
6438;SDS011;3252;52.540;13.290;2023-01-06T03:44:41;5.50;;;1.33;;
6438;SDS011;3252;52.540;13.290;2023-01-06T03:46:52;7.20;;;1.67;;
6438;SDS011;3252;52.540;13.290;2023-01-06T03:49:04;5.40;;;1.90;;
6438;SDS011;3252;52.540;13.290;2023-01-06T03:51:21;9.23;;;1.93;;
6438;SDS011;3252;52.540;13.290;2023-01-06T04:01:29;5.50;;;1.33;;
6438;SDS011;3252;52.540;13.290;2023-01-06T04:03:34;7.30;;;1.60;;
6438;SDS011;3252;52.540;13.290;2023-01-06T04:05:38;7.43;;;1.93;;
6438;SDS011;3252;52.540;13.290;2023-01-06T04:07:42;4.83;;;1.50;;
6438;SDS011;3252;52.540;13.290;2023-01-06T04:09:47;4.93;;;1.57;;
6438;SDS011;3252;52.540;13.290;2023-01-06T04:15:36;7.03;;;1.60;;
6438;SDS011;3252;52.540;13.290;2023-01-06T04:17:44;7.80;;;2.17;;
6438;SDS011;3252;52.540;13.290;2023-01-06T04:22:13;6.40;;;1.60;;
6438;SDS011;3252;52.540;13.290;2023-01-06T04:26:47;6.97;;;1.53;;
6438;SDS011;3252;52.540;13.290;2023-01-06T04:28:51;5.33;;;1.40;;
6438;SDS011;3252;52.540;13.290;2023-01-06T04:33:25;5.57;;;1.47;;
6438;SDS011;3252;52.540;13.290;2023-01-06T04:35:33;5.43;;;1.83;;
6438;SDS011;3252;52.540;13.290;2023-01-06T04:37:43;7.97;;;2.00;;
6438;SDS011;3252;52.540;13.290;2023-01-06T04:40:21;10.93;;;1.90;;
6438;SDS011;3252;52.540;13.290;2023-01-06T04:43:25;5.30;;;1.60;;
6438;SDS011;3252;52.540;13.290;2023-01-06T04:48:20;8.63;;;1.90;;
6438;SDS011;3252;52.540;13.290;2023-01-06T04:50:25;8.20;;;1.90;;
6438;SDS011;3252;52.540;13.290;2023-01-06T04:52:31;5.90;;;2.00;;
6438;SDS011;3252;52.540;13.290;2023-01-06T04:59:33;8.77;;;1.97;;
6438;SDS011;3252;52.540;13.290;2023-01-06T05:03:12;8.17;;;1.60;;
6438;SDS011;3252;52.540;13.290;2023-01-06T05:05:16;9.57;;;1.87;;
6438;SDS011;3252;52.540;13.290;2023-01-06T05:07:21;8.07;;;2.20;;
6438;SDS011;3252;52.540;13.290;2023-01-06T05:09:24;8.40;;;1.90;;
6438;SDS011;3252;52.540;13.290;2023-01-06T05:11:28;5.80;;;1.90;;
6438;SDS011;3252;52.540;13.290;2023-01-06T05:13:33;7.23;;;1.97;;
6438;SDS011;3252;52.540;13.290;2023-01-06T05:16:04;8.03;;;1.67;;
6438;SDS011;3252;52.540;13.290;2023-01-06T05:19:04;9.97;;;2.37;;
6438;SDS011;3252;52.540;13.290;2023-01-06T05:21:19;9.60;;;1.90;;
6438;SDS011;3252;52.540;13.290;2023-01-06T05:24:09;6.93;;;1.60;;
6438;SDS011;3252;52.540;13.290;2023-01-06T05:29:31;11.50;;;2.77;;
6438;SDS011;3252;52.540;13.290;2023-01-06T05:31:46;13.60;;;2.17;;
6438;SDS011;3252;52.540;13.290;2023-01-06T05:34:18;7.37;;;2.70;;
6438;SDS011;3252;52.540;13.290;2023-01-06T05:36:27;10.00;;;2.30;;
6438;SDS011;3252;52.540;13.290;2023-01-06T05:39:25;9.20;;;2.40;;
6438;SDS011;3252;52.540;13.290;2023-01-06T05:44:53;9.03;;;2.57;;
6438;SDS011;3252;52.540;13.290;2023-01-06T05:46:57;10.27;;;2.60;;
6438;SDS011;3252;52.540;13.290;2023-01-06T05:49:10;9.03;;;2.83;;
6438;SDS011;3252;52.540;13.290;2023-01-06T05:51:21;12.70;;;3.33;;
6438;SDS011;3252;52.540;13.290;2023-01-06T05:54:08;7.40;;;2.57;;
6438;SDS011;3252;52.540;13.290;2023-01-06T05:56:29;10.17;;;2.63;;
6438;SDS011;3252;52.540;13.290;2023-01-06T05:58:35;7.37;;;3.20;;
6438;SDS011;3252;52.540;13.290;2023-01-06T06:01:37;7.60;;;3.00;;
6438;SDS011;3252;52.540;13.290;2023-01-06T06:04:27;6.90;;;2.83;;
6438;SDS011;3252;52.540;13.290;2023-01-06T06:06:54;8.40;;;2.83;;
6438;SDS011;3252;52.540;13.290;2023-01-06T06:09:19;9.60;;;2.80;;
6438;SDS011;3252;52.540;13.290;2023-01-06T06:14:54;6.53;;;2.63;;
6438;SDS011;3252;52.540;13.290;2023-01-06T06:17:14;9.00;;;2.73;;
6438;SDS011;3252;52.540;13.290;2023-01-06T06:19:33;11.83;;;3.27;;
6438;SDS011;3252;52.540;13.290;2023-01-06T06:21:56;7.80;;;2.93;;
6438;SDS011;3252;52.540;13.290;2023-01-06T06:24:27;7.70;;;2.93;;
6438;SDS011;3252;52.540;13.290;2023-01-06T06:26:39;12.67;;;2.97;;
6438;SDS011;3252;52.540;13.290;2023-01-06T06:33:00;10.37;;;3.20;;
6438;SDS011;3252;52.540;13.290;2023-01-06T06:36:18;8.97;;;2.93;;
6438;SDS011;3252;52.540;13.290;2023-01-06T06:42:32;7.50;;;3.20;;
6438;SDS011;3252;52.540;13.290;2023-01-06T06:45:03;11.30;;;3.63;;
6438;SDS011;3252;52.540;13.290;2023-01-06T06:48:16;9.57;;;3.17;;
6438;SDS011;3252;52.540;13.290;2023-01-06T07:04:33;12.73;;;4.13;;
6438;SDS011;3252;52.540;13.290;2023-01-06T07:10:12;11.33;;;4.17;;
6438;SDS011;3252;52.540;13.290;2023-01-06T07:14:44;10.57;;;4.37;;
6438;SDS011;3252;52.540;13.290;2023-01-06T07:24:04;12.63;;;4.60;;
6438;SDS011;3252;52.540;13.290;2023-01-06T07:26:38;13.80;;;5.60;;
6438;SDS011;3252;52.540;13.290;2023-01-06T07:28:43;15.13;;;5.10;;
6438;SDS011;3252;52.540;13.290;2023-01-06T07:30:45;10.70;;;5.00;;
6438;SDS011;3252;52.540;13.290;2023-01-06T07:32:48;11.57;;;5.40;;
6438;SDS011;3252;52.540;13.290;2023-01-06T07:34:50;13.10;;;5.33;;
6438;SDS011;3252;52.540;13.290;2023-01-06T07:36:53;15.03;;;6.00;;
6438;SDS011;3252;52.540;13.290;2023-01-06T07:38:56;13.97;;;5.30;;
6438;SDS011;3252;52.540;13.290;2023-01-06T07:40:59;14.70;;;6.03;;
6438;SDS011;3252;52.540;13.290;2023-01-06T07:43:02;18.30;;;6.10;;
6438;SDS011;3252;52.540;13.290;2023-01-06T07:45:06;18.43;;;5.87;;
6438;SDS011;3252;52.540;13.290;2023-01-06T07:47:09;15.17;;;6.80;;
6438;SDS011;3252;52.540;13.290;2023-01-06T07:49:11;17.60;;;7.13;;
6438;SDS011;3252;52.540;13.290;2023-01-06T07:51:14;16.87;;;7.00;;
6438;SDS011;3252;52.540;13.290;2023-01-06T07:53:16;13.10;;;6.27;;
6438;SDS011;3252;52.540;13.290;2023-01-06T07:55:24;15.90;;;6.70;;
6438;SDS011;3252;52.540;13.290;2023-01-06T07:57:39;21.90;;;6.57;;
6438;SDS011;3252;52.540;13.290;2023-01-06T07:59:44;15.90;;;7.30;;
6438;SDS011;3252;52.540;13.290;2023-01-06T08:01:48;16.43;;;7.10;;
6438;SDS011;3252;52.540;13.290;2023-01-06T08:03:51;16.43;;;7.60;;
6438;SDS011;3252;52.540;13.290;2023-01-06T08:05:54;16.47;;;7.13;;
6438;SDS011;3252;52.540;13.290;2023-01-06T08:07:57;14.93;;;7.40;;
6438;SDS011;3252;52.540;13.290;2023-01-06T08:10:00;16.40;;;8.57;;
6438;SDS011;3252;52.540;13.290;2023-01-06T08:12:03;17.23;;;8.30;;
6438;SDS011;3252;52.540;13.290;2023-01-06T08:14:09;17.80;;;8.77;;
6438;SDS011;3252;52.540;13.290;2023-01-06T08:16:12;18.97;;;8.40;;
6438;SDS011;3252;52.540;13.290;2023-01-06T08:18:16;17.90;;;8.57;;
6438;SDS011;3252;52.540;13.290;2023-01-06T08:20:20;18.63;;;8.97;;
6438;SDS011;3252;52.540;13.290;2023-01-06T08:22:24;20.73;;;8.30;;
6438;SDS011;3252;52.540;13.290;2023-01-06T08:24:27;16.40;;;8.30;;
6438;SDS011;3252;52.540;13.290;2023-01-06T08:26:30;16.63;;;9.10;;
6438;SDS011;3252;52.540;13.290;2023-01-06T08:28:36;21.53;;;9.47;;
6438;SDS011;3252;52.540;13.290;2023-01-06T08:30:38;21.33;;;9.23;;
6438;SDS011;3252;52.540;13.290;2023-01-06T08:32:42;19.93;;;9.40;;
6438;SDS011;3252;52.540;13.290;2023-01-06T08:34:45;20.10;;;9.90;;
6438;SDS011;3252;52.540;13.290;2023-01-06T08:36:48;21.40;;;9.10;;
6438;SDS011;3252;52.540;13.290;2023-01-06T08:38:52;15.77;;;9.47;;
6438;SDS011;3252;52.540;13.290;2023-01-06T08:40:55;21.63;;;9.33;;
6438;SDS011;3252;52.540;13.290;2023-01-06T08:42:58;20.00;;;9.47;;
6438;SDS011;3252;52.540;13.290;2023-01-06T08:45:02;20.33;;;9.27;;
6438;SDS011;3252;52.540;13.290;2023-01-06T08:47:05;22.07;;;10.50;;
6438;SDS011;3252;52.540;13.290;2023-01-06T08:49:10;24.83;;;10.17;;
6438;SDS011;3252;52.540;13.290;2023-01-06T08:51:15;16.60;;;9.83;;
6438;SDS011;3252;52.540;13.290;2023-01-06T08:53:23;17.43;;;9.97;;
6438;SDS011;3252;52.540;13.290;2023-01-06T08:55:25;19.30;;;10.37;;
6438;SDS011;3252;52.540;13.290;2023-01-06T08:57:28;19.93;;;10.60;;
6438;SDS011;3252;52.540;13.290;2023-01-06T08:59:30;21.10;;;10.60;;
6438;SDS011;3252;52.540;13.290;2023-01-06T09:01:35;22.17;;;10.97;;
6438;SDS011;3252;52.540;13.290;2023-01-06T09:03:43;18.00;;;10.20;;
6438;SDS011;3252;52.540;13.290;2023-01-06T09:05:50;21.40;;;10.80;;
6438;SDS011;3252;52.540;13.290;2023-01-06T09:07:53;24.20;;;10.57;;
6438;SDS011;3252;52.540;13.290;2023-01-06T09:09:56;20.23;;;10.50;;
6438;SDS011;3252;52.540;13.290;2023-01-06T09:11:58;23.70;;;11.07;;
6438;SDS011;3252;52.540;13.290;2023-01-06T09:14:01;20.80;;;11.80;;
6438;SDS011;3252;52.540;13.290;2023-01-06T09:16:03;20.70;;;11.17;;
6438;SDS011;3252;52.540;13.290;2023-01-06T09:18:08;20.23;;;11.20;;
6438;SDS011;3252;52.540;13.290;2023-01-06T09:20:10;18.30;;;11.37;;
6438;SDS011;3252;52.540;13.290;2023-01-06T09:22:12;24.87;;;11.80;;
6438;SDS011;3252;52.540;13.290;2023-01-06T09:24:15;21.20;;;11.40;;
6438;SDS011;3252;52.540;13.290;2023-01-06T09:26:17;22.97;;;11.10;;
6438;SDS011;3252;52.540;13.290;2023-01-06T09:28:21;23.07;;;11.17;;
6438;SDS011;3252;52.540;13.290;2023-01-06T09:30:23;21.03;;;10.67;;
6438;SDS011;3252;52.540;13.290;2023-01-06T09:32:25;21.20;;;10.80;;
6438;SDS011;3252;52.540;13.290;2023-01-06T09:34:29;19.40;;;10.50;;
6438;SDS011;3252;52.540;13.290;2023-01-06T09:36:31;20.47;;;11.00;;
6438;SDS011;3252;52.540;13.290;2023-01-06T09:38:33;17.27;;;10.43;;
6438;SDS011;3252;52.540;13.290;2023-01-06T09:40:39;21.10;;;10.70;;
6438;SDS011;3252;52.540;13.290;2023-01-06T09:42:53;24.70;;;11.73;;
6438;SDS011;3252;52.540;13.290;2023-01-06T09:45:17;25.97;;;11.30;;
6438;SDS011;3252;52.540;13.290;2023-01-06T09:47:22;20.93;;;11.27;;
6438;SDS011;3252;52.540;13.290;2023-01-06T09:49:32;19.63;;;10.70;;
6438;SDS011;3252;52.540;13.290;2023-01-06T09:51:40;18.97;;;10.83;;
6438;SDS011;3252;52.540;13.290;2023-01-06T09:53:43;23.03;;;12.00;;
6438;SDS011;3252;52.540;13.290;2023-01-06T09:55:51;23.00;;;11.23;;
6438;SDS011;3252;52.540;13.290;2023-01-06T09:57:58;24.33;;;11.77;;
6438;SDS011;3252;52.540;13.290;2023-01-06T10:00:04;21.27;;;10.70;;
6438;SDS011;3252;52.540;13.290;2023-01-06T10:02:14;22.13;;;11.07;;
6438;SDS011;3252;52.540;13.290;2023-01-06T10:04:23;21.10;;;11.17;;
6438;SDS011;3252;52.540;13.290;2023-01-06T10:06:30;20.97;;;10.83;;
6438;SDS011;3252;52.540;13.290;2023-01-06T10:08:37;20.00;;;9.90;;
6438;SDS011;3252;52.540;13.290;2023-01-06T10:10:54;18.30;;;10.13;;
6438;SDS011;3252;52.540;13.290;2023-01-06T10:13:13;20.93;;;10.20;;
6438;SDS011;3252;52.540;13.290;2023-01-06T10:15:29;17.50;;;9.53;;
6438;SDS011;3252;52.540;13.290;2023-01-06T10:17:40;15.30;;;9.70;;
6438;SDS011;3252;52.540;13.290;2023-01-06T10:19:53;15.87;;;9.63;;
6438;SDS011;3252;52.540;13.290;2023-01-06T10:22:07;17.40;;;9.33;;
6438;SDS011;3252;52.540;13.290;2023-01-06T10:24:33;22.07;;;10.70;;
6438;SDS011;3252;52.540;13.290;2023-01-06T10:26:52;17.43;;;9.90;;
6438;SDS011;3252;52.540;13.290;2023-01-06T10:28:59;18.40;;;10.13;;
6438;SDS011;3252;52.540;13.290;2023-01-06T10:31:05;18.03;;;9.20;;
6438;SDS011;3252;52.540;13.290;2023-01-06T10:33:13;17.00;;;9.50;;
6438;SDS011;3252;52.540;13.290;2023-01-06T10:35:23;17.63;;;10.13;;
6438;SDS011;3252;52.540;13.290;2023-01-06T10:37:33;18.50;;;9.33;;
6438;SDS011;3252;52.540;13.290;2023-01-06T10:39:38;19.80;;;9.67;;
6438;SDS011;3252;52.540;13.290;2023-01-06T10:41:45;20.70;;;10.40;;
6438;SDS011;3252;52.540;13.290;2023-01-06T10:43:56;16.93;;;9.00;;
6438;SDS011;3252;52.540;13.290;2023-01-06T10:45:58;15.83;;;9.03;;
6438;SDS011;3252;52.540;13.290;2023-01-06T10:48:01;14.87;;;9.20;;
6438;SDS011;3252;52.540;13.290;2023-01-06T10:50:05;18.30;;;9.27;;
6438;SDS011;3252;52.540;13.290;2023-01-06T10:52:12;14.40;;;9.57;;
6438;SDS011;3252;52.540;13.290;2023-01-06T10:54:17;15.67;;;9.20;;
6438;SDS011;3252;52.540;13.290;2023-01-06T10:56:23;17.93;;;9.60;;
6438;SDS011;3252;52.540;13.290;2023-01-06T10:58:31;16.97;;;10.03;;
6438;SDS011;3252;52.540;13.290;2023-01-06T11:00:37;16.77;;;9.67;;
6438;SDS011;3252;52.540;13.290;2023-01-06T11:03:02;22.23;;;11.53;;
6438;SDS011;3252;52.540;13.290;2023-01-06T11:05:07;17.07;;;10.97;;
6438;SDS011;3252;52.540;13.290;2023-01-06T11:07:14;14.30;;;9.70;;
6438;SDS011;3252;52.540;13.290;2023-01-06T11:09:31;16.17;;;9.53;;
6438;SDS011;3252;52.540;13.290;2023-01-06T11:11:43;17.20;;;10.50;;
6438;SDS011;3252;52.540;13.290;2023-01-06T11:13:48;15.07;;;9.83;;
6438;SDS011;3252;52.540;13.290;2023-01-06T11:15:53;13.20;;;9.43;;
6438;SDS011;3252;52.540;13.290;2023-01-06T11:17:56;18.73;;;10.43;;
6438;SDS011;3252;52.540;13.290;2023-01-06T11:20:05;15.37;;;10.43;;
6438;SDS011;3252;52.540;13.290;2023-01-06T11:24:34;15.53;;;10.37;;
6438;SDS011;3252;52.540;13.290;2023-01-06T11:26:51;17.57;;;11.20;;
6438;SDS011;3252;52.540;13.290;2023-01-06T11:28:54;13.43;;;9.70;;
6438;SDS011;3252;52.540;13.290;2023-01-06T11:30:57;16.97;;;10.00;;
6438;SDS011;3252;52.540;13.290;2023-01-06T11:33:03;15.93;;;10.50;;
6438;SDS011;3252;52.540;13.290;2023-01-06T11:35:15;16.70;;;10.20;;
6438;SDS011;3252;52.540;13.290;2023-01-06T11:37:28;14.10;;;9.23;;
6438;SDS011;3252;52.540;13.290;2023-01-06T11:39:33;14.13;;;9.97;;
6438;SDS011;3252;52.540;13.290;2023-01-06T11:41:37;15.53;;;9.73;;
6438;SDS011;3252;52.540;13.290;2023-01-06T11:43:44;15.53;;;9.80;;
6438;SDS011;3252;52.540;13.290;2023-01-06T11:45:47;12.87;;;8.87;;
6438;SDS011;3252;52.540;13.290;2023-01-06T11:47:53;14.77;;;9.90;;
6438;SDS011;3252;52.540;13.290;2023-01-06T11:49:56;15.60;;;9.07;;
6438;SDS011;3252;52.540;13.290;2023-01-06T11:52:01;11.33;;;8.30;;
6438;SDS011;3252;52.540;13.290;2023-01-06T11:54:16;14.00;;;9.00;;
6438;SDS011;3252;52.540;13.290;2023-01-06T11:56:27;13.93;;;8.43;;
6438;SDS011;3252;52.540;13.290;2023-01-06T11:58:38;14.60;;;8.13;;
6438;SDS011;3252;52.540;13.290;2023-01-06T12:00:50;10.70;;;7.97;;
6438;SDS011;3252;52.540;13.290;2023-01-06T12:02:56;12.87;;;7.70;;
6438;SDS011;3252;52.540;13.290;2023-01-06T12:05:09;13.13;;;8.37;;
6438;SDS011;3252;52.540;13.290;2023-01-06T12:07:20;13.97;;;8.10;;
6438;SDS011;3252;52.540;13.290;2023-01-06T12:09:30;11.90;;;7.17;;
6438;SDS011;3252;52.540;13.290;2023-01-06T12:11:38;8.57;;;6.60;;
6438;SDS011;3252;52.540;13.290;2023-01-06T12:13:46;10.70;;;6.87;;
6438;SDS011;3252;52.540;13.290;2023-01-06T12:15:50;12.23;;;8.40;;
6438;SDS011;3252;52.540;13.290;2023-01-06T12:17:59;7.93;;;6.20;;
6438;SDS011;3252;52.540;13.290;2023-01-06T12:20:05;10.67;;;5.67;;
6438;SDS011;3252;52.540;13.290;2023-01-06T12:24:21;7.77;;;5.00;;
6438;SDS011;3252;52.540;13.290;2023-01-06T12:26:25;7.77;;;5.03;;
6438;SDS011;3252;52.540;13.290;2023-01-06T12:28:31;6.00;;;3.87;;
6438;SDS011;3252;52.540;13.290;2023-01-06T12:30:40;8.13;;;3.60;;
6438;SDS011;3252;52.540;13.290;2023-01-06T12:32:46;6.80;;;3.73;;
6438;SDS011;3252;52.540;13.290;2023-01-06T12:34:52;5.30;;;3.40;;
6438;SDS011;3252;52.540;13.290;2023-01-06T12:37:00;7.97;;;4.50;;
6438;SDS011;3252;52.540;13.290;2023-01-06T12:39:16;5.67;;;3.20;;
6438;SDS011;3252;52.540;13.290;2023-01-06T12:41:24;6.87;;;3.73;;
6438;SDS011;3252;52.540;13.290;2023-01-06T12:43:32;10.10;;;4.70;;
6438;SDS011;3252;52.540;13.290;2023-01-06T12:45:40;8.40;;;4.10;;
6438;SDS011;3252;52.540;13.290;2023-01-06T12:47:47;5.03;;;3.47;;
6438;SDS011;3252;52.540;13.290;2023-01-06T12:49:52;6.47;;;3.87;;
6438;SDS011;3252;52.540;13.290;2023-01-06T12:51:59;7.40;;;3.40;;
6438;SDS011;3252;52.540;13.290;2023-01-06T12:54:05;6.70;;;3.37;;
6438;SDS011;3252;52.540;13.290;2023-01-06T12:56:19;5.60;;;2.90;;
6438;SDS011;3252;52.540;13.290;2023-01-06T12:58:29;4.90;;;2.60;;
6438;SDS011;3252;52.540;13.290;2023-01-06T13:00:42;6.57;;;4.80;;
6438;SDS011;3252;52.540;13.290;2023-01-06T13:02:53;9.03;;;6.37;;
6438;SDS011;3252;52.540;13.290;2023-01-06T13:05:10;6.17;;;3.50;;
6438;SDS011;3252;52.540;13.290;2023-01-06T13:07:41;5.73;;;2.40;;
6438;SDS011;3252;52.540;13.290;2023-01-06T13:09:53;5.07;;;2.07;;
6438;SDS011;3252;52.540;13.290;2023-01-06T13:12:05;4.63;;;2.00;;
6438;SDS011;3252;52.540;13.290;2023-01-06T13:14:23;4.47;;;2.17;;
6438;SDS011;3252;52.540;13.290;2023-01-06T13:16:35;3.40;;;1.67;;
6438;SDS011;3252;52.540;13.290;2023-01-06T13:18:41;4.80;;;2.00;;
6438;SDS011;3252;52.540;13.290;2023-01-06T13:20:49;3.07;;;1.70;;
6438;SDS011;3252;52.540;13.290;2023-01-06T13:23:00;5.47;;;1.73;;
6438;SDS011;3252;52.540;13.290;2023-01-06T13:25:21;3.03;;;1.50;;
6438;SDS011;3252;52.540;13.290;2023-01-06T13:27:54;4.20;;;1.40;;
6438;SDS011;3252;52.540;13.290;2023-01-06T13:30:19;4.13;;;1.60;;
6438;SDS011;3252;52.540;13.290;2023-01-06T13:32:40;3.60;;;1.70;;
6438;SDS011;3252;52.540;13.290;2023-01-06T13:35:05;4.23;;;1.50;;
6438;SDS011;3252;52.540;13.290;2023-01-06T13:37:24;4.13;;;1.60;;
6438;SDS011;3252;52.540;13.290;2023-01-06T13:39:34;3.00;;;1.37;;
6438;SDS011;3252;52.540;13.290;2023-01-06T13:41:41;2.87;;;1.47;;
6438;SDS011;3252;52.540;13.290;2023-01-06T13:43:48;2.50;;;1.40;;
6438;SDS011;3252;52.540;13.290;2023-01-06T13:45:56;2.97;;;1.47;;
6438;SDS011;3252;52.540;13.290;2023-01-06T13:48:00;4.83;;;1.37;;
6438;SDS011;3252;52.540;13.290;2023-01-06T13:50:09;6.23;;;1.37;;
6438;SDS011;3252;52.540;13.290;2023-01-06T13:52:15;2.43;;;1.30;;
6438;SDS011;3252;52.540;13.290;2023-01-06T13:59:28;3.77;;;1.30;;
6438;SDS011;3252;52.540;13.290;2023-01-06T14:01:32;2.00;;;1.47;;
6438;SDS011;3252;52.540;13.290;2023-01-06T14:03:35;3.23;;;1.63;;
6438;SDS011;3252;52.540;13.290;2023-01-06T14:05:53;3.00;;;1.10;;
6438;SDS011;3252;52.540;13.290;2023-01-06T14:07:57;3.27;;;1.40;;
6438;SDS011;3252;52.540;13.290;2023-01-06T14:10:02;4.23;;;1.20;;
6438;SDS011;3252;52.540;13.290;2023-01-06T14:12:07;2.07;;;1.10;;
6438;SDS011;3252;52.540;13.290;2023-01-06T14:14:18;2.87;;;1.17;;
6438;SDS011;3252;52.540;13.290;2023-01-06T14:18:50;3.73;;;0.90;;
6438;SDS011;3252;52.540;13.290;2023-01-06T14:21:05;3.00;;;1.20;;
6438;SDS011;3252;52.540;13.290;2023-01-06T14:23:19;2.33;;;0.90;;
6438;SDS011;3252;52.540;13.290;2023-01-06T14:25:24;2.90;;;0.90;;
6438;SDS011;3252;52.540;13.290;2023-01-06T14:30:22;1.40;;;1.00;;
6438;SDS011;3252;52.540;13.290;2023-01-06T14:35:09;1.83;;;1.07;;
6438;SDS011;3252;52.540;13.290;2023-01-06T14:37:14;2.73;;;1.40;;
6438;SDS011;3252;52.540;13.290;2023-01-06T14:39:19;3.43;;;1.90;;
6438;SDS011;3252;52.540;13.290;2023-01-06T14:41:26;5.07;;;2.40;;
6438;SDS011;3252;52.540;13.290;2023-01-06T14:43:31;3.77;;;1.73;;
6438;SDS011;3252;52.540;13.290;2023-01-06T14:45:38;2.37;;;1.33;;
6438;SDS011;3252;52.540;13.290;2023-01-06T14:47:43;2.03;;;1.40;;
6438;SDS011;3252;52.540;13.290;2023-01-06T14:49:52;1.23;;;0.90;;
6438;SDS011;3252;52.540;13.290;2023-01-06T14:51:59;2.50;;;1.20;;
6438;SDS011;3252;52.540;13.290;2023-01-06T14:54:11;3.07;;;1.10;;
6438;SDS011;3252;52.540;13.290;2023-01-06T14:56:19;2.13;;;1.20;;
6438;SDS011;3252;52.540;13.290;2023-01-06T14:58:26;1.87;;;1.37;;
6438;SDS011;3252;52.540;13.290;2023-01-06T15:00:29;3.27;;;1.40;;
6438;SDS011;3252;52.540;13.290;2023-01-06T15:02:32;3.63;;;1.33;;
6438;SDS011;3252;52.540;13.290;2023-01-06T15:04:35;3.63;;;1.77;;
6438;SDS011;3252;52.540;13.290;2023-01-06T15:06:37;3.57;;;1.47;;
6438;SDS011;3252;52.540;13.290;2023-01-06T15:08:41;2.73;;;1.73;;
6438;SDS011;3252;52.540;13.290;2023-01-06T15:10:44;2.83;;;1.73;;
6438;SDS011;3252;52.540;13.290;2023-01-06T15:12:49;3.53;;;2.00;;
6438;SDS011;3252;52.540;13.290;2023-01-06T15:14:52;4.03;;;2.37;;
6438;SDS011;3252;52.540;13.290;2023-01-06T15:16:55;5.53;;;2.30;;
6438;SDS011;3252;52.540;13.290;2023-01-06T15:18:59;12.63;;;8.60;;
6438;SDS011;3252;52.540;13.290;2023-01-06T15:21:02;5.20;;;2.80;;
6438;SDS011;3252;52.540;13.290;2023-01-06T15:23:06;2.80;;;1.90;;
6438;SDS011;3252;52.540;13.290;2023-01-06T15:25:18;3.10;;;2.10;;
6438;SDS011;3252;52.540;13.290;2023-01-06T15:27:22;4.70;;;2.23;;
6438;SDS011;3252;52.540;13.290;2023-01-06T15:29:25;3.87;;;2.00;;
6438;SDS011;3252;52.540;13.290;2023-01-06T15:31:27;6.00;;;2.40;;
6438;SDS011;3252;52.540;13.290;2023-01-06T15:33:35;5.97;;;2.70;;
6438;SDS011;3252;52.540;13.290;2023-01-06T15:35:39;4.33;;;2.43;;
6438;SDS011;3252;52.540;13.290;2023-01-06T15:37:42;5.13;;;2.47;;
6438;SDS011;3252;52.540;13.290;2023-01-06T15:39:47;4.47;;;1.90;;
6438;SDS011;3252;52.540;13.290;2023-01-06T15:41:52;4.03;;;2.17;;
6438;SDS011;3252;52.540;13.290;2023-01-06T15:43:54;3.40;;;1.97;;
6438;SDS011;3252;52.540;13.290;2023-01-06T15:45:57;5.10;;;2.83;;
6438;SDS011;3252;52.540;13.290;2023-01-06T15:48:07;5.30;;;2.30;;
6438;SDS011;3252;52.540;13.290;2023-01-06T15:50:16;3.53;;;1.90;;
6438;SDS011;3252;52.540;13.290;2023-01-06T15:52:22;4.83;;;2.30;;
6438;SDS011;3252;52.540;13.290;2023-01-06T15:54:26;3.60;;;1.80;;
6438;SDS011;3252;52.540;13.290;2023-01-06T15:56:30;4.20;;;1.98;;
6438;SDS011;3252;52.540;13.290;2023-01-06T15:58:35;8.00;;;2.27;;
6438;SDS011;3252;52.540;13.290;2023-01-06T16:00:40;3.33;;;1.90;;
6438;SDS011;3252;52.540;13.290;2023-01-06T16:02:47;4.27;;;1.60;;
6438;SDS011;3252;52.540;13.290;2023-01-06T16:04:50;7.00;;;4.43;;
6438;SDS011;3252;52.540;13.290;2023-01-06T16:06:52;6.50;;;2.33;;